Flight Track Log - Related Links

Times and Time Zones

All times are in EST time to prevent confusion due to time zone crossing. See the UPS2977 flight status page for this flight to view local times or setup timezone preferences in your user account.

Time Position Orientation Groundspeed Altitude Reporting Facility
EST Latitude Longitude Course Direction KTS MPH feet Rate Location/Type
Tue 11:18:09 AM 47.6031 -117.5611 191° South 177 204 4,400  Level Seattle Center
Tue 11:19:10 AM 47.5519 -117.5758 191° South 221 254 6,800 2,678 Climbing Seattle Center
Tue 11:20:10 AM 47.4831 -117.5069 146° Southeast 283 326 9,800 2,380 Climbing Seattle Center
Tue 11:21:11 AM 47.4186 -117.4061 133° Southeast 334 384 11,600 2,115 Climbing Seattle Center
Tue 11:22:12 AM 47.3378 -117.2881 135° Southeast 406 467 14,100 2,557 Climbing Seattle Center
Tue 11:23:13 AM 47.2547 -117.1661 135° Southeast 423 487 16,800 2,410 Climbing Seattle Center
Tue 11:24:14 AM 47.1711 -117.0458 136° Southeast 443 510 19,000 2,213 Climbing Seattle Center
Tue 11:25:15 AM 47.0742 -116.9050 135° Southeast 469 540 21,300 2,115 Climbing Seattle Center
Tue 11:26:16 AM 46.9786 -116.7658 135° Southeast 488 562 23,300 1,918 Climbing Seattle Center
Tue 11:27:17 AM 46.8792 -116.6219 135° Southeast 505 581 25,200 1,785 Climbing Seattle Center
Tue 11:28:17 AM 46.7772 -116.4756 135° Southeast 521 600 26,900 1,934 Climbing Seattle Center
Tue 11:29:18 AM 46.6747 -116.3300 136° Southeast 518 596 29,100 1,869 Climbing Seattle Center
Tue 11:30:19 AM 46.5717 -116.1839 136° Southeast 521 600 30,700 1,475 Climbing Seattle Center
Tue 11:31:20 AM 46.4658 -116.0344 136° Southeast 530 610 32,100 1,279 Climbing Seattle Center
Tue 11:32:21 AM 46.3569 -115.8825 136° Southeast 537 618 33,300 1,377 Climbing Seattle Center
Tue 11:33:22 AM 46.2308 -115.7069 136° Southeast 536 617 34,900 836 Climbing Seattle Center
Tue 11:34:23 AM 46.1361 -115.5761 136° Southeast 537 618 35,000 49 Climbing Seattle Center
Tue 11:35:24 AM 46.0281 -115.4275 136° Southeast 532 612 35,000  Level Seattle Center
Tue 11:36:25 AM 45.9222 -115.2828 136° Southeast 527 606 35,000  Level Seattle Center
Tue 11:37:26 AM 45.8156 -115.1378 137° Southeast 531 611 35,000  Level Seattle Center
Tue 11:38:27 AM 45.6869 -114.9639 137° Southeast 526 605 35,000  Level Seattle Center
Tue 11:39:27 AM 45.5808 -114.8217 137° Southeast 522 601 35,000  Level Seattle Center
Tue 11:40:28 AM 45.4742 -114.6797 137° Southeast 527 606 35,000  Level Seattle Center
Tue 11:41:29 AM 45.3664 -114.5361 137° Southeast 531 611 35,000  Level Seattle Center
Tue 11:42:30 AM 45.2586 -114.3936 137° Southeast 528 608 35,000  Level Seattle Center
Tue 11:43:31 AM 45.1511 -114.2525 137° Southeast 526 605 35,000  Level Seattle Center
Tue 11:44:32 AM 45.0439 -114.1106 137° Southeast 527 606 35,000  Level Seattle Center
Tue 11:45:33 AM 44.9517 -113.9503 129° Southeast 527 606 35,000  Level Seattle Center
Tue 11:46:34 AM 44.8722 -113.7761 123° Southeast 527 606 35,000  Level Seattle Center
Tue 11:48:04 AM 44.7503 -113.5278 125° Southeast 528 608 35,000  Level Salt Lake Center
Tue 11:49:06 AM 44.6583 -113.3392 124° Southeast 526 605 35,000  Level Salt Lake Center
Tue 11:50:08 AM 44.5789 -113.1781 125° Southeast 524 603 35,000  Level Salt Lake Center
Tue 11:51:10 AM 44.4872 -112.9944 125° Southeast 518 596 35,000  Level Salt Lake Center
Tue 11:52:12 AM 44.4083 -112.8364 125° Southeast 519 597 35,000  Level Salt Lake Center
Tue 11:53:14 AM 44.3144 -112.6517 125° Southeast 522 601 35,000  Level Salt Lake Center
Tue 11:54:16 AM 44.2358 -112.4961 125° Southeast 517 595 35,000  Level Salt Lake Center
Tue 11:55:18 AM 44.1428 -112.3128 125° Southeast 520 598 35,000  Level Salt Lake Center
Tue 11:56:20 AM 44.0506 -112.1706 132° Southeast 523 602 35,000  Level Salt Lake Center
Tue 11:57:22 AM 43.9272 -112.0300 141° Southeast 518 596 35,000  Level Salt Lake Center
Tue 11:58:24 AM 43.8194 -111.9119 142° Southeast 517 595 35,000  Level Salt Lake Center
Tue 11:59:26 AM 43.6931 -111.7739 142° Southeast 519 597 35,000  Level Salt Lake Center
Tue 12:00:28 PM 43.5856 -111.6572 142° Southeast 516 594 35,000  Level Salt Lake Center
Tue 12:01:30 PM 43.4594 -111.5211 142° Southeast 517 595 35,000  Level Salt Lake Center
Tue 12:02:32 PM 43.3519 -111.4075 142° Southeast 511 588 35,000  Level Salt Lake Center
Tue 12:03:34 PM 43.2444 -111.2908 142° Southeast 514 592 35,000  Level Salt Lake Center
Tue 12:04:36 PM 43.1194 -111.1578 142° Southeast 513 590 35,000  Level Salt Lake Center
Tue 12:05:38 PM 43.0094 -111.0436 143° Southeast 517 595 35,000  Level Salt Lake Center
Tue 12:06:40 PM 42.8828 -110.9078 142° Southeast 519 597 35,000  Level Salt Lake Center
Tue 12:07:41 PM 42.7756 -110.7958 143° Southeast 511 588 35,000  Level Salt Lake Center
Tue 12:08:43 PM 42.6594 -110.6775 143° Southeast 512 589 35,000  Level Salt Lake Center
Tue 12:09:45 PM 42.5319 -110.5461 143° Southeast 515 593 35,000  Level Salt Lake Center
Tue 12:10:47 PM 42.4242 -110.4356 143° Southeast 510 587 35,000  Level Salt Lake Center
Tue 12:11:49 PM 42.2989 -110.3058 143° Southeast 508 585 35,000  Level Salt Lake Center
Tue 12:12:51 PM 42.1906 -110.1967 143° Southeast 508 585 35,000  Level Salt Lake Center
Tue 12:18:22 PM 41.6440 -109.4300 143° Southeast 510 587 35,000  Level FlightAware ADS-B
Tue 12:18:50 PM 41.6000 -109.3620 131° Southeast 507 583 35,000  Level FlightAware ADS-B
Tue 12:19:49 PM 41.5100 -109.2210 130° Southeast 501 577 35,000  Level FlightAware ADS-B
Tue 12:20:34 PM 41.4440 -109.1170 130° Southeast 498 573 35,000  Level FlightAware ADS-B
Tue 12:21:44 PM 41.3380 -108.9530 131° Southeast 496 571 35,000  Level FlightAware ADS-B
Tue 12:22:07 PM 41.3060 -108.9030 130° Southeast 497 572 35,000  Level FlightAware ADS-B
Tue 12:22:37 PM 41.2600 -108.8310 130° Southeast 499 574 35,000  Level FlightAware ADS-B
Tue 12:23:45 PM 41.1600 -108.6770 131° Southeast 495 570 35,000  Level FlightAware ADS-B
Tue 12:24:23 PM 41.1010 -108.5870 131° Southeast 494 568 35,000  Level FlightAware ADS-B
Tue 12:24:47 PM 41.0670 -108.5340 130° Southeast 494 568 35,000  Level FlightAware ADS-B
Tue 12:25:23 PM 41.0140 -108.4530 131° Southeast 489 563 35,000  Level FlightAware ADS-B
Tue 12:25:52 PM 40.9680 -108.3840 131° Southeast 488 562 35,000  Level FlightAware ADS-B
Tue 12:26:25 PM 40.9210 -108.3110 130° Southeast 487 560 35,000  Level FlightAware ADS-B
Tue 12:27:25 PM 40.8320 -108.1770 131° Southeast 496 571 35,000  Level FlightAware ADS-B
Tue 12:28:09 PM 40.7650 -108.0750 131° Southeast 486 559 35,000  Level FlightAware ADS-B
Tue 12:28:35 PM 40.7268 -108.0179 131° Southeast 486 559 35,000  Level FlightAware ADS-B
Tue 12:29:05 PM 40.6830 -107.9510 131° Southeast 481 554 35,000  Level FlightAware ADS-B
Tue 12:29:49 PM 40.6531 -107.9071 132° Southeast 480 552 35,000  Level FlightAware ADS-B (KGUC)
Tue 12:30:39 PM 40.5450 -107.7470 132° Southeast 476 548 35,000  Level FlightAware ADS-B
Tue 12:31:12 PM 40.5005 -107.6793 131° Southeast 482 555 35,000  Level FlightAware ADS-B
Tue 12:31:49 PM 40.4469 -107.5995 131° Southeast 484 557 35,000  Level FlightAware ADS-B
Tue 12:32:32 PM 40.3814 -107.5027 132° Southeast 482 555 35,000  Level FlightAware ADS-B
Tue 12:32:40 PM 40.3660 -107.4798 131° Southeast 485 558 35,000  Level FlightAware ADS-B (KGUC)
Tue 12:33:27 PM 40.2971 -107.3782 132° Southeast 484 557 35,000  Level FlightAware ADS-B
Tue 12:33:57 PM 40.2593 -107.3225 132° Southeast 476 548 35,000  Level FlightAware ADS-B
Tue 12:34:34 PM 40.2048 -107.2426 132° Southeast 471 542 35,000  Level FlightAware ADS-B
Tue 12:35:23 PM 40.1370 -107.1435 132° Southeast 471 542 35,000  Level FlightAware ADS-B (KGUC)
Tue 12:36:23 PM 40.0410 -107.0030 132° Southeast 476 548 35,000  Level FlightAware ADS-B
Tue 12:37:07 PM 39.9782 -106.9121 132° Southeast 482 555 35,000  Level FlightAware ADS-B
Tue 12:37:48 PM 39.9151 -106.8207 132° Southeast 477 549 35,000  Level FlightAware ADS-B (KGUC)
Tue 12:38:31 PM 39.8552 -106.7342 132° Southeast 474 545 35,000  Level FlightAware ADS-B
Tue 12:39:11 PM 39.7926 -106.6443 132° Southeast 479 551 35,000  Level FlightAware ADS-B
Tue 12:40:20 PM 39.7040 -106.5171 132° Southeast 484 557 35,000  Level FlightAware ADS-B (KGUC)
Tue 12:40:54 PM 39.6382 -106.4229 132° Southeast 479 551 35,000  Level FlightAware ADS-B
Tue 12:41:24 PM 39.6062 -106.3773 132° Southeast 480 552 35,000  Level FlightAware ADS-B
Tue 12:42:06 PM 39.5296 -106.2684 132° Southeast 482 555 35,000  Level FlightAware ADS-B
Tue 12:42:38 PM 39.4836 -106.2031 132° Southeast 483 556 35,000  Level FlightAware ADS-B
Tue 12:43:25 PM 39.4137 -106.1041 132° Southeast 484 557 35,000  Level FlightAware ADS-B
Tue 12:43:56 PM 39.3652 -106.0357 133° Southeast 486 559 35,000  Level FlightAware ADS-B
Tue 12:44:43 PM 39.2948 -105.9372 133° Southeast 478 550 35,000  Level FlightAware ADS-B
Tue 12:45:13 PM 39.2491 -105.8732 133° Southeast 476 548 35,000  Level FlightAware ADS-B
Tue 12:45:45 PM 39.2032 -105.8087 133° Southeast 474 545 35,000  Level FlightAware ADS-B
Tue 12:46:26 PM 39.1424 -105.7236 133° Southeast 474 545 35,000  Level FlightAware ADS-B
Tue 12:46:56 PM 39.0965 -105.6595 133° Southeast 479 551 35,000  Level FlightAware ADS-B
Tue 12:47:29 PM 39.0455 -105.5885 133° Southeast 479 551 35,000  Level FlightAware ADS-B
Tue 12:47:59 PM 39.0010 -105.5268 133° Southeast 478 550 35,000 92 Level FlightAware ADS-B
Tue 12:48:34 PM 38.9504 -105.4565 133° Southeast 471 542 35,100  Climbing FlightAware ADS-B
Tue 12:49:04 PM 38.9068 -105.3966 133° Southeast 474 545 35,000 -95 Descending FlightAware ADS-B
Tue 12:49:37 PM 38.8555 -105.3258 133° Southeast 474 545 35,000  Level FlightAware ADS-B
Tue 12:50:15 PM 38.8023 -105.2526 133° Southeast 470 541 35,000  Level FlightAware ADS-B
Tue 12:50:56 PM 38.7392 -105.1660 133° Southeast 466 536 35,000  Level FlightAware ADS-B
Tue 12:51:32 PM 38.6925 -105.0995 132° Southeast 467 537 35,000  Level FlightAware ADS-B
Tue 12:52:10 PM 38.6350 -105.0140 131° Southeast 462 532 35,000  Level FlightAware ADS-B
Tue 12:52:52 PM 38.5769 -104.9244 130° Southeast 456 525 35,000  Level FlightAware ADS-B
Tue 12:53:29 PM 38.5280 -104.8500 130° Southeast 457 526 35,000  Level FlightAware ADS-B
Tue 12:54:30 PM 38.4430 -104.7220 130° Southeast 469 540 35,000  Level FlightAware ADS-B
Tue 12:54:58 PM 38.4050 -104.6640 130° Southeast 473 544 35,000  Level FlightAware ADS-B
Tue 12:55:42 PM 38.3420 -104.5700 130° Southeast 469 540 35,000  Level FlightAware ADS-B
Tue 12:56:14 PM 38.2960 -104.5000 130° Southeast 469 540 35,000  Level FlightAware ADS-B
Tue 12:56:50 PM 38.2460 -104.4250 130° Southeast 466 536 35,000  Level FlightAware ADS-B
Tue 12:57:26 PM 38.1980 -104.3520 130° Southeast 470 541 35,000  Level FlightAware ADS-B
Tue 12:57:46 PM 38.1710 -104.3110 130° Southeast 472 543 35,000  Level FlightAware ADS-B
Tue 12:58:26 PM 38.1160 -104.2250 129° Southeast 469 540 35,000  Level FlightAware ADS-B
Tue 12:59:14 PM 38.0470 -104.1180 129° Southeast 470 541 35,000  Level FlightAware ADS-B
Tue 01:00:07 PM 37.9730 -104.0040 129° Southeast 480 552 35,000  Level FlightAware ADS-B
Tue 01:01:11 PM 37.8820 -103.8650 130° Southeast 487 560 35,000  Level FlightAware ADS-B
Tue 01:02:15 PM 37.7920 -103.7270 130° Southeast 477 549 35,000  Level FlightAware ADS-B
Tue 01:03:00 PM 37.7290 -103.6320 130° Southeast 466 536 35,000  Level FlightAware ADS-B
Tue 01:03:39 PM 37.6750 -103.5500 130° Southeast 464 534 35,000  Level FlightAware ADS-B
Tue 01:04:07 PM 37.6360 -103.4920 130° Southeast 463 533 35,000  Level FlightAware ADS-B
Tue 01:04:39 PM 37.5940 -103.4280 130° Southeast 462 532 35,000  Level FlightAware ADS-B
Tue 01:05:29 PM 37.5230 -103.3220 130° Southeast 464 534 35,000  Level FlightAware ADS-B
Tue 01:06:06 PM 37.4730 -103.2470 130° Southeast 467 537 35,000  Level FlightAware ADS-B
Tue 01:07:11 PM 37.3820 -103.1110 130° Southeast 465 535 35,000  Level FlightAware ADS-B
Tue 01:08:11 PM 37.2980 -102.9860 130° Southeast 469 540 35,000  Level FlightAware ADS-B
Tue 01:08:41 PM 37.2580 -102.9270 130° Southeast 466 536 35,000  Level FlightAware ADS-B
Tue 01:09:13 PM 37.2120 -102.8590 130° Southeast 467 537 35,000  Level FlightAware ADS-B
Tue 01:10:07 PM 37.1430 -102.7430 127° Southeast 477 549 35,000  Level FlightAware ADS-B
Tue 01:10:46 PM 37.0910 -102.6540 126° Southeast 480 552 35,000  Level FlightAware ADS-B
Tue 01:11:07 PM 37.0630 -102.6050 126° Southeast 481 554 35,000  Level FlightAware ADS-B
Tue 01:12:22 PM 36.9660 -102.4380 126° Southeast 480 552 35,000  Level FlightAware ADS-B
Tue 01:12:56 PM 36.9200 -102.3650 128° Southeast 467 537 35,000  Level FlightAware ADS-B
Tue 01:13:24 PM 36.8790 -102.3070 131° Southeast 465 535 35,000  Level FlightAware ADS-B
Tue 01:14:00 PM 36.8270 -102.2340 132° Southeast 467 537 35,000  Level FlightAware ADS-B
Tue 01:14:44 PM 36.7650 -102.1450 131° Southeast 466 536 35,000  Level FlightAware ADS-B
Tue 01:15:21 PM 36.7130 -102.0720 132° Southeast 465 535 35,000  Level FlightAware ADS-B
Tue 01:16:00 PM 36.6570 -101.9920 131° Southeast 465 535 35,000  Level FlightAware ADS-B
Tue 01:17:01 PM 36.5710 -101.8700 131° Southeast 469 540 35,000  Level FlightAware ADS-B
Tue 01:17:41 PM 36.5130 -101.7870 131° Southeast 471 542 35,000  Level FlightAware ADS-B
Tue 01:18:41 PM 36.4280 -101.6670 131° Southeast 473 544 35,000  Level FlightAware ADS-B
Tue 01:19:34 PM 36.3500 -101.5580 132° Southeast 468 539 35,000  Level FlightAware ADS-B
Tue 01:20:18 PM 36.2870 -101.4700 132° Southeast 474 545 35,000  Level FlightAware ADS-B
Tue 01:21:05 PM 36.2210 -101.3770 131° Southeast 474 545 35,000  Level FlightAware ADS-B
Tue 01:21:47 PM 36.1590 -101.2900 131° Southeast 473 544 35,000  Level FlightAware ADS-B
Tue 01:22:28 PM 36.0990 -101.2060 131° Southeast 472 543 35,000  Level FlightAware ADS-B
Tue 01:23:02 PM 36.0490 -101.1380 132° Southeast 471 542 35,000  Level FlightAware ADS-B
Tue 01:24:03 PM 35.9620 -101.0160 131° Southeast 475 547 35,000  Level FlightAware ADS-B
Tue 01:24:47 PM 35.8970 -100.9270 132° Southeast 478 550 35,000  Level FlightAware ADS-B
Tue 01:25:23 PM 35.8430 -100.8520 132° Southeast 478 550 35,000  Level FlightAware ADS-B
Tue 01:26:06 PM 35.7790 -100.7650 132° Southeast 474 545 35,000  Level FlightAware ADS-B
Tue 01:26:34 PM 35.7380 -100.7080 132° Southeast 473 544 35,000  Level FlightAware ADS-B
Tue 01:27:03 PM 35.6970 -100.6520 132° Southeast 473 544 35,000  Level FlightAware ADS-B
Tue 01:27:42 PM 35.6390 -100.5730 132° Southeast 475 547 35,000  Level FlightAware ADS-B
Tue 01:28:19 PM 35.5850 -100.5000 132° Southeast 478 550 35,000  Level FlightAware ADS-B
Tue 01:28:52 PM 35.5360 -100.4330 132° Southeast 480 552 35,000  Level FlightAware ADS-B
Tue 01:29:21 PM 35.4920 -100.3730 132° Southeast 480 552 35,000  Level FlightAware ADS-B
Tue 01:29:54 PM 35.4450 -100.3090 132° Southeast 477 549 35,000  Level FlightAware ADS-B
Tue 01:30:35 PM 35.3830 -100.2250 132° Southeast 475 547 35,000  Level FlightAware ADS-B
Tue 01:31:14 PM 35.3250 -100.1470 132° Southeast 480 552 35,000  Level FlightAware ADS-B
Tue 01:32:19 PM 35.2290 -100.0180 132° Southeast 479 551 35,000  Level FlightAware ADS-B
Tue 01:32:56 PM 35.1730 -99.9430 132° Southeast 479 551 35,000  Level FlightAware ADS-B
Tue 01:33:37 PM 35.1110 -99.8600 132° Southeast 479 551 35,000  Level FlightAware ADS-B
Tue 01:34:06 PM 35.0690 -99.8040 132° Southeast 479 551 35,000  Level FlightAware ADS-B
Tue 01:35:08 PM 34.9780 -99.6830 133° Southeast 480 552 35,000  Level FlightAware ADS-B
Tue 01:35:38 PM 34.9310 -99.6210 133° Southeast 481 554 35,000  Level FlightAware ADS-B
Tue 01:36:22 PM 34.8640 -99.5320 133° Southeast 479 551 35,000  Level FlightAware ADS-B
Tue 01:36:57 PM 34.8120 -99.4620 132° Southeast 479 551 35,000  Level FlightAware ADS-B
Tue 01:37:32 PM 34.7580 -99.3950 134° Southeast 474 545 35,000  Level FlightAware ADS-B
Tue 01:38:09 PM 34.7040 -99.3270 134° Southeast 471 542 35,000  Level FlightAware ADS-B
Tue 01:39:07 PM 34.6180 -99.2200 134° Southeast 467 537 35,000  Level FlightAware ADS-B
Tue 01:39:44 PM 34.5620 -99.1510 135° Southeast 466 536 35,000  Level FlightAware ADS-B
Tue 01:40:18 PM 34.5080 -99.0840 134° Southeast 467 537 35,000 -522 Level FlightAware ADS-B
Tue 01:40:53 PM 34.4570 -99.0200 134° Southeast 473 544 34,400 -1,594 Descending FlightAware ADS-B
Tue 01:41:22 PM 34.4120 -98.9650 135° Southeast 482 555 33,300 -2,308 Descending FlightAware ADS-B
Tue 01:42:24 PM 34.3140 -98.8440 134° Southeast 490 564 30,900 -2,374 Descending FlightAware ADS-B
Tue 01:42:53 PM 34.2650 -98.7840 135° Southeast 493 567 29,700 -2,435 Descending FlightAware ADS-B
Tue 01:43:33 PM 34.2000 -98.7050 135° Southeast 497 572 28,100 -2,429 Descending FlightAware ADS-B
Tue 01:44:17 PM 34.1300 -98.6190 135° Southeast 499 574 26,300 -1,983 Descending FlightAware ADS-B
Tue 01:45:28 PM 34.0250 -98.4900 134° Southeast 436 502 24,300 -1,328 Descending FlightAware ADS-B
Tue 01:46:28 PM 33.9410 -98.3830 133° Southeast 441 507 23,400 -1,172 Descending FlightAware ADS-B
Tue 01:46:55 PM 33.9050 -98.3330 131° Southeast 435 501 22,600 -2,000 Descending FlightAware ADS-B
Tue 01:47:58 PM 33.8250 -98.2210 131° Southeast 417 480 20,400 -2,133 Descending FlightAware ADS-B
Tue 01:48:25 PM 33.7910 -98.1730 130° Southeast 410 472 19,400 -2,250 Descending FlightAware ADS-B
Tue 01:49:26 PM 33.7170 -98.0700 131° Southeast 397 457 17,100 -2,323 Descending FlightAware ADS-B
Tue 01:49:58 PM 33.6780 -98.0150 130° Southeast 398 458 15,800 -2,182 Descending FlightAware ADS-B
Tue 01:50:54 PM 33.6120 -97.9250 131° Southeast 377 434 13,900 -1,898 Descending FlightAware ADS-B
Tue 01:51:36 PM 33.5630 -97.8570 131° Southeast 378 435 12,700 -1,537 Descending FlightAware ADS-B
Tue 01:52:16 PM 33.5180 -97.7970 132° Southeast 371 427 11,800 -1,116 Descending FlightAware ADS-B
Tue 01:53:02 PM 33.4732 -97.7427 135° Southeast 340 391 11,100 -980 Descending FlightAware ADS-B
Tue 01:53:54 PM 33.4100 -97.6680 135° Southeast 306 352 10,200 -1,129 Descending FlightAware ADS-B
Tue 01:54:27 PM 33.3800 -97.6300 133° Southeast 295 339 9,500 -1,333 Descending FlightAware ADS-B
Tue 01:55:06 PM 33.3410 -97.5830 135° Southeast 287 330 8,600 -1,440 Descending FlightAware ADS-B
Tue 01:55:42 PM 33.3090 -97.5430 134° Southeast 280 322 7,700 -1,417 Descending FlightAware ADS-B
Tue 01:56:18 PM 33.2770 -97.5040 134° Southeast 273 314 6,900 -1,397 Descending FlightAware ADS-B
Tue 01:56:55 PM 33.2450 -97.4640 134° Southeast 267 307 6,000 -1,200 Descending FlightAware ADS-B
Tue 01:57:13 PM 33.2356 -97.4530 136° Southeast 265 305 5,800 -789 Descending FlightAware ADS-B
Tue 01:57:33 PM 33.2185 -97.4327 135° Southeast 262 302 5,500 -878 Descending FlightAware ADS-B
Tue 01:57:54 PM 33.2006 -97.4109 134° Southeast 258 297 5,200 -811 Descending FlightAware ADS-B
Tue 01:58:10 PM 33.1867 -97.3936 134° Southeast 255 293 5,000 -324 Descending FlightAware ADS-B
Tue 01:58:31 PM 33.1682 -97.3705 134° Southeast 251 289 5,000 -286 Level FlightAware ADS-B
Tue 01:58:52 PM 33.1511 -97.3493 134° Southeast 244 281 4,800 -732 Descending FlightAware ADS-B
Tue 01:59:12 PM 33.1372 -97.3321 134° Southeast 241 277 4,500 -973 Descending FlightAware ADS-B
Tue 01:59:29 PM 33.1258 -97.3145 128° Southeast 243 280 4,200 -1,125 Descending FlightAware ADS-B
Tue 01:59:44 PM 33.1161 -97.2989 127° Southeast 232 267 3,900 -938 Descending FlightAware ADS-B
Tue 02:00:01 PM 33.1037 -97.2839 135° Southeast 221 254 3,700 -789 Descending FlightAware ADS-B
Tue 02:00:22 PM 33.0885 -97.2664 136° Southeast 208 239 3,400 -732 Descending FlightAware ADS-B
Tue 02:00:42 PM 33.0746 -97.2514 138° Southeast 196 226 3,200 -585 Descending FlightAware ADS-B
Tue 02:01:03 PM 33.0602 -97.2379 142° Southeast 190 219 3,000 -286 Descending FlightAware ADS-B
Tue 02:01:24 PM 33.0458 -97.2247 142° Southeast 190 219 3,000  Level FlightAware ADS-B
Tue 02:01:40 PM 33.0323 -97.2109 139° Southeast 193 222 3,000  Level FlightAware ADS-B
Tue 02:02:01 PM 33.0200 -97.1976 138° Southeast 192 221 3,000 -143 Level FlightAware ADS-B
Tue 02:02:22 PM 33.0065 -97.1826 137° Southeast 179 206 2,900 -571 Descending FlightAware ADS-B
Tue 02:02:43 PM 32.9947 -97.1704 139° Southeast 169 194 2,600 -732 Descending FlightAware ADS-B
Tue 02:03:03 PM 32.9836 -97.1591 140° Southeast 159 183 2,400 -732 Descending FlightAware ADS-B
Tue 02:03:24 PM 32.9721 -97.1476 140° Southeast 146 168 2,100 -714 Descending FlightAware ADS-B
Tue 02:03:45 PM 32.9622 -97.1374 139° Southeast 121 139 1,900 -474 Descending FlightAware ADS-B
Tue 02:04:02 PM 32.9558 -97.1308 139° Southeast 118 136 1,800 -486 Descending FlightAware ADS-B
Tue 02:04:22 PM 32.9465 -97.1212 139° Southeast 116 133 1,600 -732 Descending FlightAware ADS-B
Tue 02:04:43 PM 32.9372 -97.1116 139° Southeast 115 132 1,300 -656 Descending FlightAware ADS-B
Tue 02:05:26 PM 32.9210 -97.0950 139° Southeast 119 137 900 -338 Descending FlightAware ADS-B
Tue 02:05:54 PM 32.9110 -97.0850 140° Southeast 119 137 900  Level FlightAware ADS-B
Tue 02:13:00 PM 32.8968 -97.0380 140° Southeast  Level Estimated
Tue 02:14:00 PM 32.8968 -97.0380 140° Southeast  Level Estimated
Tue 02:15:00 PM 32.8968 -97.0380 140° Southeast  Level Estimated

Login

Don't have an account? Register now (free) for customized features, flight alerts, and more!